Flight Track Log - Related Links

Times and Time Zones

All times are in EDT time to prevent confusion due to time zone crossing. See the FSR511 flight status page for this flight to view local times or setup timezone preferences in your user account.

Time Position Orientation Groundspeed Altitude Reporting Facility
EDT Latitude Longitude Course Direction KTS MPH feet Rate Location/Type
Thu 08:47:36 AM 35.8561 -78.8083 302° West 174 200 1,100  Level Washington Center
Thu 08:48:13 AM 35.8286 -78.8303 213° Southwest 207 238 2,900 2,806 Climbing Washington Center
Thu 08:48:38 AM 35.8111 -78.8550 229° Southwest 232 267 4,000 2,824 Climbing Washington Center
Thu 08:49:38 AM 35.8153 -78.9372 274° West 249 287 6,900 2,667 Climbing Washington Center
Thu 08:49:41 AM 35.8175 -78.9244 78° East 240 276 6,800 295 Descending Washington Center
Thu 08:50:39 AM 35.8233 -79.0169 274° West 245 282 7,200 1,916 Climbing Washington Center
Thu 08:51:40 AM 35.8231 -79.0964 270° West 250 288 10,600 2,975 Climbing Washington Center
Thu 08:52:40 AM 35.8267 -79.1836 273° West 268 308 13,200 3,450 Climbing Washington Center
Thu 08:53:00 AM 36.0902 -79.2108 302° West  Level Estimated
Thu 08:54:20 AM 35.8314 -79.3617 272° West 304 350 19,800  Level Atlanta Center
Thu 08:55:20 AM 35.8208 -79.4700 263° West 315 362 22,900 2,400 Climbing Atlanta Center
Thu 08:56:20 AM 35.8083 -79.5808 262° West 328 377 24,600 2,050 Climbing Atlanta Center
Thu 08:57:20 AM 35.7875 -79.6972 258° West 339 390 27,000 2,500 Climbing Atlanta Center
Thu 08:58:20 AM 35.7686 -79.8133 259° West 344 396 29,600 2,750 Climbing Atlanta Center
Thu 08:59:20 AM 35.7519 -79.9369 261° West 344 396 32,500 2,200 Climbing Atlanta Center
Thu 09:00:20 AM 35.7786 -80.0483 286° West 330 380 34,000 1,350 Climbing Atlanta Center
Thu 09:01:20 AM 35.8156 -80.1642 292° West 341 392 35,200 1,500 Climbing Atlanta Center
Thu 09:02:20 AM 35.8753 -80.2664 306° West 351 404 37,000 1,650 Climbing Atlanta Center
Thu 09:03:20 AM 35.9450 -80.3658 311° West 366 421 38,500 1,450 Climbing Atlanta Center
Thu 09:04:20 AM 35.9889 -80.4458 304° West 357 411 39,900 750 Climbing Atlanta Center
Thu 09:05:20 AM 36.0461 -80.5461 305° West 351 404 40,000 450 Climbing Atlanta Center
Thu 09:06:20 AM 36.1161 -80.6614 307° West 368 423 40,800 800 Climbing Atlanta Center
Thu 09:07:20 AM 36.1753 -80.7644 305° West 374 430 41,600 700 Climbing Atlanta Center
Thu 09:08:20 AM 36.2342 -80.8675 305° West 374 430 42,200 550 Climbing Atlanta Center
Thu 09:09:20 AM 36.2953 -80.9758 305° West 374 430 42,700 400 Climbing Atlanta Center
Thu 09:10:20 AM 36.3583 -81.0817 307° West 374 430 43,000 150 Climbing Atlanta Center
Thu 09:11:20 AM 36.4172 -81.1878 305° West 374 430 43,000  Level Atlanta Center
Thu 09:12:20 AM 36.4736 -81.2839 306° West 379 436 43,000  Level Atlanta Center
Thu 09:13:20 AM 36.5300 -81.3853 305° West 374 430 43,000  Level Atlanta Center
Thu 09:14:20 AM 36.5886 -81.4919 304° West 374 430 43,000  Level Atlanta Center
Thu 09:16:02 AM 36.6892 -81.6692 305° West 377 434 43,000  Level Indianapolis Center
Thu 09:17:04 AM 36.7614 -81.7978 305° West 386 444 43,000  Level Indianapolis Center
Thu 09:18:06 AM 36.8233 -81.9083 305° West 387 445 43,000  Level Indianapolis Center
Thu 09:19:08 AM 36.8839 -82.0186 304° West 387 445 43,000  Level Indianapolis Center
Thu 09:20:10 AM 36.9456 -82.1303 305° West 389 448 43,000  Level Indianapolis Center
Thu 09:21:12 AM 37.0075 -82.2411 305° West 389 448 43,000  Level Indianapolis Center
Thu 09:22:14 AM 37.0778 -82.3708 304° West 388 447 43,000  Level Indianapolis Center
Thu 09:23:16 AM 37.1381 -82.4819 304° West 387 445 43,000  Level Indianapolis Center
Thu 09:24:18 AM 37.1989 -82.5931 305° West 389 448 43,000  Level Indianapolis Center
Thu 09:25:20 AM 37.2594 -82.7042 304° West 388 447 43,000  Level Indianapolis Center
Thu 09:26:22 AM 37.3189 -82.8142 304° West 384 442 43,000  Level Indianapolis Center
Thu 09:27:24 AM 37.3894 -82.9456 304° West 389 448 43,000  Level Indianapolis Center
Thu 09:28:26 AM 37.4494 -83.0583 304° West 390 449 43,000  Level Indianapolis Center
Thu 09:29:28 AM 37.5097 -83.1700 304° West 387 445 43,000  Level Indianapolis Center
Thu 09:30:31 AM 37.5700 -83.2819 304° West 386 444 43,000  Level Indianapolis Center
Thu 09:31:33 AM 37.6400 -83.4147 304° West 389 448 43,000  Level Indianapolis Center
Thu 09:32:35 AM 37.6997 -83.5289 303° West 390 449 43,000  Level Indianapolis Center
Thu 09:33:37 AM 37.7617 -83.6442 304° West 394 453 43,000  Level Indianapolis Center
Thu 09:34:39 AM 37.8222 -83.7597 304° West 395 455 43,000  Level Indianapolis Center
Thu 09:35:41 AM 37.8831 -83.8750 304° West 395 455 43,000  Level Indianapolis Center
Thu 09:36:43 AM 37.9419 -83.9894 303° West 390 449 43,000  Level Indianapolis Center
Thu 09:37:45 AM 38.0125 -84.1217 304° West 388 447 43,000  Level Indianapolis Center
Thu 09:38:47 AM 38.0697 -84.2344 303° West 381 438 43,000  Level Indianapolis Center
Thu 09:39:49 AM 38.1269 -84.3461 303° West 378 435 43,000  Level Indianapolis Center
Thu 09:40:51 AM 38.1842 -84.4539 304° West 370 426 43,000  Level Indianapolis Center
Thu 09:41:53 AM 38.2394 -84.5631 303° West 367 422 43,000  Level Indianapolis Center
Thu 09:42:55 AM 38.3042 -84.6889 303° West 365 420 43,000  Level Indianapolis Center
Thu 09:43:57 AM 38.3592 -84.7978 303° West 364 419 43,000  Level Indianapolis Center
Thu 09:44:59 AM 38.4158 -84.9086 303° West 370 426 43,000  Level Indianapolis Center
Thu 09:46:01 AM 38.4703 -85.0175 303° West 365 420 43,000  Level Indianapolis Center
Thu 09:47:03 AM 38.5267 -85.1250 304° West 364 419 43,000  Level Indianapolis Center
Thu 09:48:05 AM 38.5831 -85.2406 302° West 367 422 43,000  Level Indianapolis Center
Thu 09:49:07 AM 38.6369 -85.3458 303° West 369 425 43,000  Level Indianapolis Center
Thu 09:50:09 AM 38.7031 -85.4786 303° West 369 425 43,000  Level Indianapolis Center
Thu 09:51:12 AM 38.7578 -85.5897 302° West 369 425 43,000 -288 Level Indianapolis Center
Thu 09:52:14 AM 38.8136 -85.7003 303° West 370 426 42,400 -1,016 Descending Indianapolis Center
Thu 09:53:16 AM 38.8697 -85.8139 302° West 376 433 40,900 -1,452 Descending Indianapolis Center
Thu 09:54:18 AM 38.9272 -85.9294 303° West 382 440 39,400 -1,694 Descending Indianapolis Center
Thu 09:55:20 AM 38.9808 -86.0403 302° West 370 426 37,400 -1,645 Descending Indianapolis Center
Thu 09:56:22 AM 39.0422 -86.1661 302° West 348 400 36,000 -677 Descending Indianapolis Center
Thu 09:57:24 AM 39.0911 -86.2672 302° West 337 388 36,000 -581 Level Indianapolis Center
Thu 09:58:26 AM 39.1406 -86.3686 302° West 334 384 34,800 -1,452 Descending Indianapolis Center
Thu 09:59:28 AM 39.1917 -86.4739 302° West 343 395 33,000 -1,839 Descending Indianapolis Center
Thu 10:00:30 AM 39.2428 -86.5786 302° West 345 397 31,000 -2,129 Descending Indianapolis Center
Thu 10:01:32 AM 39.2908 -86.6806 301° West 336 387 28,600 -2,516 Descending Indianapolis Center
Thu 10:02:34 AM 39.3486 -86.8011 302° West 330 380 25,800 -2,806 Descending Indianapolis Center
Thu 10:03:36 AM 39.3975 -86.9011 302° West 329 379 22,800 -2,903 Descending Indianapolis Center
Thu 10:04:38 AM 39.4439 -87.0003 301° West 324 373 19,800 -2,565 Descending Indianapolis Center
Thu 10:05:40 AM 39.4950 -87.1089 301° West 326 375 17,500 -2,032 Descending Indianapolis Center
Thu 10:06:42 AM 39.5403 -87.2042 302° West 332 382 15,600 -1,887 Descending Indianapolis Center
Thu 10:07:44 AM 39.5892 -87.3050 302° West 334 384 13,600 -2,129 Descending Indianapolis Center
Thu 10:08:46 AM 39.6431 -87.4225 301° West 321 369 11,200 -1,258 Descending Indianapolis Center
Thu 10:09:48 AM 39.6878 -87.5183 301° West 314 361 11,000 -97 Descending Indianapolis Center
Thu 10:10:50 AM 39.7303 -87.6089 301° West 300 345 11,000 -192 Level Indianapolis Center
Thu 10:11:53 AM 39.7692 -87.6911 302° West 278 320 10,600 -1,152 Descending Indianapolis Center
Thu 10:12:55 AM 39.8017 -87.7706 298° West 257 296 8,600 -1,935 Descending Indianapolis Center
Thu 10:13:57 AM 39.8347 -87.8550 297° West 259 298 6,600 -1,597 Descending Indianapolis Center
Thu 10:14:59 AM 39.8711 -87.9453 298° West 261 300 5,300 -1,258 Descending Indianapolis Center
Thu 10:17:00 AM 39.9767 -88.1468 294° West  Level FlightAware Approximate
Thu 10:24:00 AM 40.0333 -88.2667 311° West  Level FlightAware Approximate
Thu 10:25:00 AM 40.0388 -88.2778 311° West  Level Estimated
Thu 10:26:00 AM 40.0388 -88.2778 311° West  Level Estimated
Thu 10:27:00 AM 40.0388 -88.2778 311° West  Level Estimated
Thu 10:28:00 AM 40.0388 -88.2778 311° West  Level Estimated

Login

Don't have an account? Register now (free) for customized features, flight alerts, and more!